createdAt,value
2017-09-13T00:01:47.355Z,100082.39
2017-09-13T00:04:22.150Z,100077.56
2017-09-13T00:06:57.149Z,100067.36
2017-09-13T00:09:31.868Z,100066.41
2017-09-13T00:12:06.676Z,100062.87
2017-09-13T00:14:41.750Z,100062.40
2017-09-13T00:17:16.608Z,100045.39
2017-09-13T00:19:51.203Z,100036.58
2017-09-13T00:22:25.963Z,100038.56
2017-09-13T00:25:00.829Z,100034.39
2017-09-13T00:27:35.619Z,100022.86
2017-09-13T00:30:10.619Z,100016.33
2017-09-13T00:32:45.365Z,100013.86
2017-09-13T00:35:19.955Z,100012.32
2017-09-13T00:37:54.628Z,100010.53
2017-09-13T00:40:29.005Z,100009.62
2017-09-13T00:43:04.200Z,100003.77
2017-09-13T00:45:38.915Z,99997.91
2017-09-13T00:48:13.352Z,99992.00
2017-09-13T00:50:48.104Z,99985.94
2017-09-13T00:53:22.838Z,99977.09
2017-09-13T00:55:57.629Z,99960.79
2017-09-13T00:58:32.441Z,99941.68
2017-09-13T01:01:07.681Z,99944.97
2017-09-13T01:03:42.539Z,99933.89
2017-09-13T01:06:17.102Z,99930.88
2017-09-13T01:08:52.091Z,99919.52
2017-09-13T01:11:26.639Z,99916.22
2017-09-13T01:14:01.328Z,99926.48
2017-09-13T01:16:36.155Z,99913.34
2017-09-13T01:19:10.812Z,99905.86
2017-09-13T01:21:46.068Z,99910.06
2017-09-13T01:24:20.867Z,99912.48
2017-09-13T01:26:55.495Z,99887.52
2017-09-13T01:29:30.483Z,99888.78
2017-09-13T01:32:05.324Z,99889.33
2017-09-13T01:34:39.941Z,99879.86
2017-09-13T01:37:14.851Z,99881.05
2017-09-13T01:39:49.669Z,99870.52
2017-09-13T01:42:25.019Z,99862.41
2017-09-13T01:45:00.062Z,99849.57
2017-09-13T01:47:34.573Z,99839.03
2017-09-13T01:50:09.416Z,99825.11
2017-09-13T01:52:44.827Z,99825.39
2017-09-13T01:55:19.467Z,99809.97
2017-09-13T01:57:54.170Z,99807.03
2017-09-13T02:00:28.947Z,99816.30
2017-09-13T02:03:03.795Z,99824.02
2017-09-13T02:05:38.815Z,99807.02
2017-09-13T02:08:13.378Z,99816.29
2017-09-13T02:10:48.299Z,99803.72
2017-09-13T02:13:23.131Z,99793.13
2017-09-13T02:15:57.927Z,99788.78
2017-09-13T02:18:32.659Z,99779.05
2017-09-13T02:21:07.318Z,99766.61
2017-09-13T02:23:42.059Z,99742.17
2017-09-13T02:26:16.747Z,99732.03
2017-09-13T02:28:51.473Z,99705.56
2017-09-13T02:31:26.275Z,99700.02
2017-09-13T02:34:01.141Z,99701.98
2017-09-13T02:36:36.054Z,99686.50
2017-09-13T02:39:10.680Z,99674.61
2017-09-13T02:41:45.195Z,99666.41
2017-09-13T02:44:19.884Z,99661.05
2017-09-13T02:46:54.738Z,99662.54
2017-09-13T02:49:29.659Z,99676.21
2017-09-13T02:52:04.352Z,99676.25
2017-09-13T02:54:39.167Z,99688.17
2017-09-13T02:57:13.776Z,99673.90
2017-09-13T02:59:48.192Z,99659.88
2017-09-13T03:02:22.887Z,99648.55
2017-09-13T03:04:57.807Z,99625.90
2017-09-13T03:07:32.452Z,99612.33
2017-09-13T03:10:07.416Z,99600.69
2017-09-13T03:12:42.352Z,99607.63
2017-09-13T03:15:17.094Z,99599.69
2017-09-13T03:17:51.824Z,99589.55
2017-09-13T03:20:26.769Z,99567.91
2017-09-13T03:23:01.660Z,99552.73
2017-09-13T03:25:36.283Z,99541.23
2017-09-13T03:28:11.176Z,99526.56
2017-09-13T03:30:47.144Z,99512.89
2017-09-13T03:33:21.963Z,99509.98
2017-09-13T03:35:56.788Z,99507.88
2017-09-13T03:38:31.500Z,99509.10
2017-09-13T03:41:06.209Z,99480.15
2017-09-13T03:43:41.044Z,99481.06
2017-09-13T03:46:16.036Z,99468.39
2017-09-13T03:48:51.025Z,99449.53
2017-09-13T03:51:25.787Z,99449.28
2017-09-13T03:54:00.379Z,99441.95
2017-09-13T03:56:34.815Z,99428.33
2017-09-13T03:59:09.608Z,99415.79
2017-09-13T04:01:44.545Z,99402.72
2017-09-13T04:04:19.315Z,99396.94
2017-09-13T04:06:53.996Z,99383.76
2017-09-13T04:09:28.599Z,99378.05
2017-09-13T04:12:03.276Z,99362.23
2017-09-13T04:14:38.007Z,99346.52
2017-09-13T04:17:12.545Z,99347.69
2017-09-13T04:19:47.488Z,99336.03
2017-09-13T04:22:22.880Z,99329.97
2017-09-13T04:24:58.242Z,99329.72
2017-09-13T04:27:33.080Z,99320.36
2017-09-13T04:30:07.848Z,99308.20
2017-09-13T04:32:42.757Z,99302.81
2017-09-13T04:35:17.575Z,99278.88
2017-09-13T04:37:52.318Z,99276.65
2017-09-13T04:40:27.135Z,99269.73
2017-09-13T04:43:02.259Z,99252.64
2017-09-13T04:45:36.839Z,99237.09
2017-09-13T04:48:11.676Z,99224.77
2017-09-13T04:50:46.195Z,99227.48
2017-09-13T04:53:21.168Z,99212.20
2017-09-13T04:55:55.887Z,99202.09
2017-09-13T04:58:30.432Z,99212.27
2017-09-13T05:01:05.244Z,99200.91
2017-09-13T05:03:39.859Z,99182.52
2017-09-13T05:06:14.442Z,99180.66
2017-09-13T05:08:49.236Z,99176.78
2017-09-13T05:11:24.015Z,99176.95
2017-09-13T05:13:58.735Z,99166.33
2017-09-13T05:16:34.275Z,99159.40
2017-09-13T05:19:08.991Z,99165.77
2017-09-13T05:21:43.830Z,99151.77
2017-09-13T05:24:18.535Z,99146.77
2017-09-13T05:26:53.129Z,99136.80
2017-09-13T05:29:27.820Z,99136.89
2017-09-13T05:32:02.735Z,99134.77
2017-09-13T05:34:37.558Z,99117.07
2017-09-13T05:37:12.156Z,99133.84
2017-09-13T05:39:46.850Z,99126.28
2017-09-13T05:42:21.842Z,99119.80
2017-09-13T05:44:56.446Z,99109.91
2017-09-13T05:47:31.489Z,99095.62
2017-09-13T05:50:05.788Z,99095.73
2017-09-13T05:52:40.884Z,99094.13
2017-09-13T05:55:15.619Z,99088.81
2017-09-13T05:57:50.571Z,99090.16
2017-09-13T06:00:24.830Z,99084.20
2017-09-13T06:02:59.894Z,99076.66
2017-09-13T06:05:34.595Z,99068.83
2017-09-13T06:08:09.443Z,99068.73
2017-09-13T06:10:44.139Z,99058.19
2017-09-13T06:13:18.831Z,99064.85
2017-09-13T06:15:53.520Z,99059.53
2017-09-13T06:18:28.237Z,99047.87
2017-09-13T06:21:02.827Z,99037.35
2017-09-13T06:23:37.858Z,99037.53
2017-09-13T06:26:12.607Z,99024.95
2017-09-13T06:28:47.739Z,99025.78
2017-09-13T06:31:22.251Z,99024.19
2017-09-13T06:33:56.663Z,99030.14
2017-09-13T06:36:31.287Z,99020.31
2017-09-13T06:39:05.867Z,98988.30
2017-09-13T06:41:40.850Z,98989.92
2017-09-13T06:44:15.829Z,98995.63
2017-09-13T06:46:50.607Z,98988.72
2017-09-13T06:49:25.347Z,98989.78
2017-09-13T06:52:01.140Z,98989.34
2017-09-13T06:54:36.103Z,98979.27
2017-09-13T06:57:10.842Z,98981.78
2017-09-13T07:02:55.414Z,98955.66
2017-09-13T07:05:30.471Z,98961.83
2017-09-13T07:08:05.479Z,98963.05
2017-09-13T07:10:40.424Z,98957.47
2017-09-13T07:13:15.443Z,98955.43
2017-09-13T07:15:50.263Z,98947.11
2017-09-13T07:18:25.091Z,98957.90
2017-09-13T07:20:59.923Z,98951.66
2017-09-13T07:23:34.790Z,98957.41
2017-09-13T07:26:09.435Z,98946.23
2017-09-13T07:28:44.020Z,98945.09
2017-09-13T07:31:18.855Z,98938.94
2017-09-13T07:33:53.463Z,98947.59
2017-09-13T07:36:28.617Z,98919.45
2017-09-13T07:39:03.434Z,98925.23
2017-09-13T07:41:38.501Z,98910.56
2017-09-13T07:44:13.193Z,98900.52
2017-09-13T07:46:55.406Z,98885.09
2017-09-13T07:49:30.024Z,98892.08
2017-09-13T07:52:04.944Z,98895.31
2017-09-13T07:54:39.655Z,98890.84
2017-09-13T07:57:14.483Z,98892.08
2017-09-13T07:59:49.095Z,98886.98
2017-09-13T08:02:24.004Z,98877.32
2017-09-13T08:04:58.780Z,98882.88
2017-09-13T08:07:33.731Z,98880.10
2017-09-13T08:10:08.443Z,98893.27
2017-09-13T08:12:43.307Z,98877.72
2017-09-13T08:15:18.048Z,98870.63
2017-09-13T08:17:52.572Z,98867.13
2017-09-13T08:20:27.533Z,98869.29
2017-09-13T08:23:02.355Z,98868.73
2017-09-13T08:25:37.241Z,98877.03
2017-09-13T08:28:11.923Z,98881.36
2017-09-13T08:30:46.757Z,98881.80
2017-09-13T08:33:21.865Z,98874.13
2017-09-13T08:35:56.587Z,98864.25
2017-09-13T08:38:31.470Z,98858.16
2017-09-13T08:41:06.347Z,98842.73
2017-09-13T08:43:41.481Z,98857.31
2017-09-13T08:46:16.202Z,98857.77
2017-09-13T08:48:50.880Z,98852.89
2017-09-13T08:54:06.300Z,98843.16
2017-09-13T08:56:40.975Z,98844.56
2017-09-13T08:59:16.180Z,98844.56
2017-09-13T09:01:51.162Z,98867.34
2017-09-13T09:04:26.158Z,98862.31
2017-09-13T09:07:01.105Z,98868.96
2017-09-13T09:09:35.812Z,98893.36
2017-09-13T09:12:10.340Z,98884.86
2017-09-13T09:14:45.153Z,98891.48
2017-09-13T09:17:19.967Z,98875.41
2017-09-13T09:19:54.599Z,98873.67
2017-09-13T09:22:29.593Z,98866.81
2017-09-13T09:25:04.099Z,98882.45
2017-09-13T09:27:38.933Z,98866.58
2017-09-13T09:30:13.831Z,98871.34
2017-09-13T09:32:48.531Z,98871.39
2017-09-13T09:35:23.173Z,98875.03
2017-09-13T09:37:57.947Z,98883.60
2017-09-13T09:40:32.656Z,98879.95
2017-09-13T09:43:07.476Z,98876.22
2017-09-13T09:45:42.224Z,98869.80
2017-09-13T09:48:16.961Z,98882.05
2017-09-13T09:50:54.724Z,98869.95
2017-09-13T09:53:29.508Z,98886.19
2017-09-13T09:56:05.069Z,98872.83
2017-09-13T09:58:39.870Z,98907.59
2017-09-13T10:01:15.439Z,98911.14
2017-09-13T10:03:50.971Z,98876.86
2017-09-13T10:06:25.703Z,98892.78
2017-09-13T10:09:00.437Z,98903.77
2017-09-13T10:11:35.019Z,98911.61
2017-09-13T10:14:10.066Z,98917.34
2017-09-13T10:16:45.594Z,98903.08
2017-09-13T10:19:20.796Z,98914.66
2017-09-13T10:21:55.961Z,98905.83
2017-09-13T10:24:30.501Z,98906.50
2017-09-13T10:27:05.277Z,98904.85
2017-09-13T10:29:40.008Z,98918.66
2017-09-13T10:32:14.627Z,98892.52
2017-09-13T10:34:49.427Z,98915.24
2017-09-13T10:37:24.392Z,98900.05
2017-09-13T10:39:59.029Z,98905.53
2017-09-13T10:42:33.842Z,98919.16
2017-09-13T10:45:08.556Z,98935.19
2017-09-13T10:47:43.434Z,98931.30
2017-09-13T10:50:18.285Z,98958.48
2017-09-13T10:52:52.913Z,98957.86
2017-09-13T10:55:27.504Z,98953.14
2017-09-13T10:58:02.316Z,98964.80
2017-09-13T11:00:37.264Z,98942.13
2017-09-13T11:03:12.545Z,98960.25
2017-09-13T11:05:47.792Z,98971.59
2017-09-13T11:08:23.166Z,98991.97
2017-09-13T11:34:54.360Z,99045.11
2017-09-13T11:37:29.153Z,99037.50
2017-09-13T11:40:03.941Z,99058.01
2017-09-13T11:42:38.773Z,99062.14
2017-09-13T11:45:13.700Z,99044.69
2017-09-13T11:47:48.504Z,99030.05
2017-09-13T11:50:23.101Z,99044.84
2017-09-13T11:52:57.692Z,99044.66
2017-09-13T11:55:32.608Z,99051.38
2017-09-13T11:58:08.276Z,99050.14
2017-09-13T12:00:42.968Z,99072.98
2017-09-13T12:03:17.751Z,99061.50
2017-09-13T12:05:52.349Z,99082.88
2017-09-13T12:08:27.136Z,99068.43
2017-09-13T12:11:01.911Z,99054.25
2017-09-13T12:13:36.568Z,99083.43
2017-09-13T12:16:10.981Z,99081.61
2017-09-13T12:18:45.701Z,99102.30
2017-09-13T12:21:20.189Z,99089.61
2017-09-13T12:23:54.960Z,99085.21
2017-09-13T12:26:29.669Z,99085.20
2017-09-13T12:29:04.504Z,99092.09
2017-09-13T12:31:39.552Z,99102.02
2017-09-13T12:34:14.877Z,99085.55
2017-09-13T12:36:50.036Z,99108.92
2017-09-13T12:39:25.652Z,99118.23
2017-09-13T12:42:00.497Z,99126.91
2017-09-13T12:44:35.357Z,99126.69
2017-09-13T12:47:10.093Z,99151.30
2017-09-13T12:49:44.692Z,99149.72
2017-09-13T12:52:19.404Z,99169.05
2017-09-13T12:54:54.125Z,99180.63
2017-09-13T12:57:28.832Z,99180.33
2017-09-13T13:00:03.552Z,99166.69
2017-09-13T13:02:38.345Z,99168.59
2017-09-13T13:05:13.169Z,99177.03
2017-09-13T13:07:48.081Z,99164.70
2017-09-13T13:10:23.137Z,99179.23
2017-09-13T13:12:57.985Z,99185.58
2017-09-13T13:15:32.579Z,99183.31
2017-09-13T13:18:07.264Z,99197.91
2017-09-13T13:20:42.016Z,99190.35
2017-09-13T13:23:17.789Z,99188.38
2017-09-13T13:25:52.644Z,99194.97
2017-09-13T13:28:27.381Z,99189.33
2017-09-13T13:31:02.082Z,99172.25
2017-09-13T13:33:37.810Z,99197.89
2017-09-13T13:36:12.425Z,99184.39
2017-09-13T13:38:47.225Z,99189.61
2017-09-13T13:41:21.744Z,99207.16
2017-09-13T13:43:56.293Z,99186.70
2017-09-13T13:46:30.945Z,99203.77
2017-09-13T13:49:05.648Z,99205.02
2017-09-13T13:51:40.317Z,99198.58
2017-09-13T13:54:14.817Z,99206.04
2017-09-13T13:56:49.606Z,99227.98
2017-09-13T13:59:24.096Z,99205.72
2017-09-13T14:01:58.880Z,99202.38
2017-09-13T14:04:33.585Z,99217.91
2017-09-13T14:07:08.249Z,99218.09
2017-09-13T14:09:42.863Z,99212.50
2017-09-13T14:12:17.401Z,99211.31
2017-09-13T14:14:51.828Z,99213.55
2017-09-13T14:17:26.361Z,99222.77
2017-09-13T14:20:01.049Z,99211.14
2017-09-13T14:22:36.677Z,99241.73
2017-09-13T14:25:11.172Z,99222.85
2017-09-13T14:27:45.876Z,99226.23
2017-09-13T14:30:20.487Z,99235.52
2017-09-13T14:32:55.464Z,99227.98
2017-09-13T14:35:30.361Z,99237.96
2017-09-13T14:38:05.088Z,99221.67
2017-09-13T14:40:39.752Z,99239.29
2017-09-13T14:43:14.767Z,99239.97
2017-09-13T14:45:49.680Z,99236.06
2017-09-13T14:48:24.556Z,99245.11
2017-09-13T14:50:58.981Z,99235.04
2017-09-13T14:53:33.797Z,99274.22
2017-09-13T14:56:09.514Z,99241.28
2017-09-13T14:58:44.265Z,99242.70
2017-09-13T15:01:18.874Z,99243.95
2017-09-13T15:03:53.593Z,99225.77
2017-09-13T15:06:28.280Z,99250.80
2017-09-13T15:09:02.888Z,99250.11
2017-09-13T15:11:38.012Z,99258.53
2017-09-13T15:14:12.730Z,99256.28
2017-09-13T15:16:47.230Z,99251.98
2017-09-13T15:19:22.140Z,99264.05
2017-09-13T15:21:56.921Z,99262.00
2017-09-13T15:24:32.257Z,99250.19
2017-09-13T15:27:07.108Z,99251.95
2017-09-13T15:29:42.030Z,99253.70
2017-09-13T15:32:16.453Z,99273.05
2017-09-13T15:34:51.389Z,99274.19
2017-09-13T15:37:26.396Z,99266.69
2017-09-13T15:40:01.325Z,99262.86
2017-09-13T15:42:36.853Z,99279.54
2017-09-13T15:45:11.547Z,99265.01
2017-09-13T15:47:46.237Z,99273.94
2017-09-13T15:50:20.969Z,99271.69
2017-09-13T15:52:55.675Z,99270.81
2017-09-13T15:55:30.392Z,99308.27
2017-09-13T15:58:05.098Z,99284.73
2017-09-13T16:00:39.453Z,99277.65
2017-09-13T16:03:14.408Z,99280.27
2017-09-13T16:05:48.898Z,99276.60
2017-09-13T16:08:23.809Z,99283.92
2017-09-13T16:10:58.904Z,99279.44
2017-09-13T16:13:33.400Z,99288.66
2017-09-13T16:16:08.096Z,99290.69
2017-09-13T16:18:43.017Z,99291.97
2017-09-13T16:21:17.721Z,99298.69
2017-09-13T16:23:52.413Z,99292.58
2017-09-13T16:26:27.376Z,99296.20
2017-09-13T16:29:02.068Z,99300.41
2017-09-13T16:31:36.664Z,99290.00
2017-09-13T16:34:11.424Z,99289.67
2017-09-13T16:36:46.119Z,99279.02
2017-09-13T16:39:20.432Z,99292.84
2017-09-13T16:41:55.506Z,99299.16
2017-09-13T16:44:30.205Z,99291.64
2017-09-13T16:47:05.237Z,99290.86
2017-09-13T16:49:39.772Z,99297.22
2017-09-13T16:52:14.507Z,99288.72
2017-09-13T16:54:49.607Z,99297.00
2017-09-13T16:57:24.430Z,99293.34
2017-09-13T16:59:59.368Z,99289.63
2017-09-13T17:02:34.376Z,99298.14
2017-09-13T17:05:09.066Z,99294.75
2017-09-13T17:07:44.107Z,99299.73
2017-09-13T17:10:18.824Z,99288.09
2017-09-13T17:12:53.521Z,99293.66
2017-09-13T17:15:28.332Z,99296.20
2017-09-13T17:18:03.025Z,99300.69
2017-09-13T17:20:37.653Z,99292.98
2017-09-13T17:23:12.618Z,99287.85
2017-09-13T17:25:48.366Z,99290.16
2017-09-13T17:28:24.523Z,99293.55
2017-09-13T17:30:59.366Z,99292.11
2017-09-13T17:33:35.271Z,99291.45
2017-09-13T17:36:09.713Z,99297.05
2017-09-13T17:38:44.608Z,99295.64
2017-09-13T17:41:19.404Z,99304.89
2017-09-13T17:43:54.313Z,99305.13
2017-09-13T17:46:28.673Z,99309.17
2017-09-13T17:49:03.115Z,99310.62
2017-09-13T17:51:38.348Z,99305.66
2017-09-13T17:54:13.348Z,99303.01
2017-09-13T17:56:47.952Z,99302.44
2017-09-13T17:59:22.454Z,99304.17
2017-09-13T18:01:57.190Z,99301.81
2017-09-13T18:04:31.948Z,99310.06
2017-09-13T18:07:06.546Z,99310.62
2017-09-13T18:09:41.345Z,99309.50
2017-09-13T18:12:16.173Z,99307.91
2017-09-13T18:14:50.805Z,99309.70
2017-09-13T18:17:25.812Z,99315.33
2017-09-13T18:20:00.428Z,99318.30
2017-09-13T18:22:35.372Z,99327.70
2017-09-13T18:25:10.104Z,99326.11
2017-09-13T18:27:44.822Z,99325.55
2017-09-13T18:30:19.647Z,99330.67
2017-09-13T18:32:53.965Z,99335.03
2017-09-13T18:35:28.468Z,99336.03
2017-09-13T18:38:03.173Z,99330.00
2017-09-13T18:40:37.784Z,99337.53
2017-09-13T18:43:12.564Z,99328.69
2017-09-13T18:45:47.365Z,99327.11
2017-09-13T18:48:21.820Z,99330.42
2017-09-13T18:50:56.720Z,99334.83
2017-09-13T18:53:31.435Z,99335.54
2017-09-13T18:56:06.463Z,99328.84
2017-09-13T18:58:41.717Z,99326.60
2017-09-13T19:01:16.508Z,99326.55
2017-09-13T19:03:51.202Z,99335.88
2017-09-13T19:06:25.893Z,99334.83
2017-09-13T19:09:00.646Z,99333.23
2017-09-13T19:11:35.457Z,99337.05
2017-09-13T19:14:10.407Z,99338.08
2017-09-13T19:16:44.809Z,99335.00
2017-09-13T19:19:19.421Z,99340.70
2017-09-13T19:21:55.132Z,99342.04
2017-09-13T19:24:29.627Z,99338.89
2017-09-13T19:27:04.824Z,99338.37
2017-09-13T19:29:40.206Z,99340.84
2017-09-13T19:32:14.735Z,99347.98
2017-09-13T19:34:49.665Z,99339.02
2017-09-13T19:37:24.260Z,99356.97
2017-09-13T19:39:58.876Z,99354.79
2017-09-13T19:42:34.327Z,99357.96
2017-09-13T19:45:09.428Z,99360.81
2017-09-13T19:47:44.144Z,99352.83
2017-09-13T19:50:18.857Z,99352.44
2017-09-13T19:52:53.684Z,99363.30
2017-09-13T19:55:28.398Z,99359.63
2017-09-13T19:58:03.989Z,99364.42
2017-09-13T20:00:38.919Z,99356.58
2017-09-13T20:03:13.170Z,99354.02
2017-09-13T20:05:49.831Z,99358.08
2017-09-13T20:08:24.804Z,99354.64
2017-09-13T20:10:59.408Z,99354.75
2017-09-13T20:13:34.137Z,99349.49
2017-09-13T20:16:08.737Z,99357.91
2017-09-13T20:18:43.456Z,99360.52
2017-09-13T20:21:18.469Z,99357.53
2017-09-13T20:23:53.173Z,99356.12
2017-09-13T20:26:27.992Z,99351.63
2017-09-13T20:29:02.700Z,99362.59
2017-09-13T20:31:37.408Z,99358.30
2017-09-13T20:34:12.109Z,99355.15
2017-09-13T20:36:47.033Z,99359.39
2017-09-13T20:39:21.668Z,99361.25
2017-09-13T20:41:56.497Z,99365.30
2017-09-13T20:44:31.409Z,99362.92
2017-09-13T20:47:06.332Z,99373.37
2017-09-13T20:49:41.008Z,99373.55
2017-09-13T20:52:15.824Z,99363.00
2017-09-13T20:54:50.832Z,99366.63
2017-09-13T20:57:26.160Z,99368.66
2017-09-13T21:00:01.366Z,99363.62
2017-09-13T21:02:36.496Z,99362.33
2017-09-13T21:05:11.743Z,99366.72
2017-09-13T21:07:46.955Z,99368.56
2017-09-13T21:10:21.858Z,99370.94
2017-09-13T21:12:56.499Z,99368.31
2017-09-13T21:15:31.504Z,99361.30
2017-09-13T21:18:06.196Z,99368.44
2017-09-13T21:20:40.939Z,99364.59
2017-09-13T21:23:16.070Z,99365.57
2017-09-13T21:25:51.477Z,99363.84
2017-09-13T21:28:26.109Z,99363.48
2017-09-13T21:31:00.824Z,99379.22
2017-09-13T21:33:35.539Z,99377.53
2017-09-13T21:36:10.292Z,99391.00
2017-09-13T21:38:45.077Z,99382.13
2017-09-13T21:41:19.945Z,99371.60
2017-09-13T21:43:54.741Z,99369.77
2017-09-13T21:46:29.377Z,99367.50
2017-09-13T21:49:04.294Z,99372.92
2017-09-13T21:51:39.357Z,99368.91
2017-09-13T21:54:14.044Z,99378.63
2017-09-13T21:56:48.575Z,99375.76
2017-09-13T21:59:23.480Z,99378.05
2017-09-13T22:01:58.005Z,99373.58
2017-09-13T22:04:32.614Z,99368.57
2017-09-13T22:07:07.534Z,99371.02
2017-09-13T22:09:42.364Z,99363.76
2017-09-13T22:12:16.532Z,99362.26
2017-09-13T22:14:51.717Z,99365.45
2017-09-13T22:17:26.702Z,99360.55
2017-09-13T22:20:01.997Z,99362.25
2017-09-13T22:22:37.023Z,99360.41
2017-09-13T22:25:11.836Z,99356.59
2017-09-13T22:27:46.629Z,99360.55
2017-09-13T22:30:21.367Z,99361.42
2017-09-13T22:32:56.409Z,99359.65
2017-09-13T22:35:31.120Z,99360.21
2017-09-13T22:38:05.944Z,99357.76
2017-09-13T22:40:40.917Z,99355.91
2017-09-13T22:43:17.089Z,99361.50
2017-09-13T22:45:51.704Z,99355.48
2017-09-13T22:48:26.232Z,99351.43
2017-09-13T22:51:01.312Z,99349.15
2017-09-13T22:53:35.952Z,99349.83
2017-09-13T22:56:10.392Z,99356.23
2017-09-13T22:58:45.445Z,99356.16
2017-09-13T23:01:20.129Z,99348.62
2017-09-13T23:03:54.874Z,99352.61
2017-09-13T23:06:29.660Z,99350.47
2017-09-13T23:09:04.052Z,99342.78
2017-09-13T23:11:39.236Z,99341.86
2017-09-13T23:14:14.037Z,99338.84
2017-09-13T23:16:48.720Z,99341.86
2017-09-13T23:19:23.445Z,99329.03
2017-09-13T23:21:58.248Z,99320.66
2017-09-13T23:24:33.352Z,99314.80
2017-09-13T23:27:08.264Z,99322.77
2017-09-13T23:29:42.856Z,99329.34
2017-09-13T23:32:17.571Z,99335.88
2017-09-13T23:34:52.560Z,99334.25
2017-09-13T23:37:27.356Z,99337.66
2017-09-13T23:40:02.044Z,99330.45
2017-09-13T23:42:36.728Z,99334.08
2017-09-13T23:45:11.332Z,99336.98
2017-09-13T23:47:45.945Z,99331.40
2017-09-13T23:50:20.724Z,99329.18
2017-09-13T23:52:55.456Z,99326.83
2017-09-13T23:55:30.180Z,99327.18
2017-09-13T23:58:04.884Z,99324.47
